createdAt,value
2018-09-05T00:01:58.169Z,9.20
2018-09-05T00:04:02.544Z,9.07
2018-09-05T00:06:06.906Z,8.90
2018-09-05T00:08:11.664Z,8.73
2018-09-05T00:10:15.999Z,9.03
2018-09-05T00:12:19.806Z,8.27
2018-09-05T00:14:23.832Z,8.43
2018-09-05T00:16:28.451Z,8.60
2018-09-05T00:18:32.720Z,8.90
2018-09-05T00:20:36.668Z,8.40
2018-09-05T00:22:40.633Z,8.27
2018-09-05T00:24:44.577Z,8.97
2018-09-05T00:26:48.458Z,8.50
2018-09-05T00:28:52.350Z,8.10
2018-09-05T00:30:58.249Z,9.07
2018-09-05T00:33:02.072Z,8.80
2018-09-05T00:35:06.181Z,7.77
2018-09-05T00:37:09.962Z,8.70
2018-09-05T00:39:13.818Z,8.10
2018-09-05T00:41:17.676Z,8.60
2018-09-05T00:43:21.538Z,8.17
2018-09-05T00:45:25.650Z,7.97
2018-09-05T00:47:29.549Z,8.90
2018-09-05T00:49:33.461Z,8.60
2018-09-05T00:51:37.308Z,7.80
2018-09-05T00:53:41.170Z,8.97
2018-09-05T00:55:44.960Z,8.50
2018-09-05T00:57:48.808Z,8.70
2018-09-05T00:59:53.038Z,9.10
2018-09-05T01:04:06.451Z,10.60
2018-09-05T01:06:10.427Z,9.10
2018-09-05T01:08:14.462Z,8.67
2018-09-05T01:10:18.396Z,8.17
2018-09-05T01:12:23.065Z,8.80
2018-09-05T01:14:26.898Z,8.77
2018-09-05T01:16:30.833Z,8.20
2018-09-05T01:18:34.709Z,8.67
2018-09-05T01:20:38.519Z,8.20
2018-09-05T01:22:42.335Z,9.40
2018-09-05T01:24:46.320Z,7.90
2018-09-05T01:26:50.140Z,8.60
2018-09-05T01:28:54.792Z,9.50
2018-09-05T01:31:00.978Z,8.47
2018-09-05T01:33:04.930Z,9.60
2018-09-05T01:35:08.869Z,8.93
2018-09-05T01:37:12.695Z,8.60
2018-09-05T01:39:16.579Z,9.07
2018-09-05T01:41:20.427Z,7.47
2018-09-05T01:43:24.200Z,9.10
2018-09-05T01:45:31.367Z,9.60
2018-09-05T01:47:35.155Z,8.80
2018-09-05T01:49:39.122Z,9.30
2018-09-05T01:51:43.032Z,9.13
2018-09-05T01:53:46.990Z,9.20
2018-09-05T01:55:50.855Z,8.73
2018-09-05T01:57:54.682Z,8.10
2018-09-05T01:59:58.653Z,8.10
2018-09-05T02:02:02.525Z,7.70
2018-09-05T02:04:06.481Z,9.00
2018-09-05T02:06:10.390Z,7.30
2018-09-05T02:08:14.357Z,8.13
2018-09-05T02:10:18.216Z,7.83
2018-09-05T02:12:22.104Z,8.17
2018-09-05T02:14:26.248Z,7.67
2018-09-05T02:16:30.100Z,8.57
2018-09-05T02:18:33.940Z,7.80
2018-09-05T02:20:37.853Z,7.60
2018-09-05T02:22:41.856Z,8.47
2018-09-05T02:24:45.800Z,8.67
2018-09-05T02:26:55.067Z,8.50
2018-09-05T02:28:59.060Z,8.40
2018-09-05T02:31:03.395Z,8.07
2018-09-05T02:33:07.271Z,8.23
2018-09-05T02:35:11.196Z,8.67
2018-09-05T02:37:15.054Z,9.07
2018-09-05T02:39:18.978Z,8.07
2018-09-05T02:41:23.217Z,8.40
2018-09-05T02:43:32.108Z,8.93
2018-09-05T02:45:36.156Z,8.70
2018-09-05T02:47:40.086Z,9.00
2018-09-05T02:49:43.925Z,8.67
2018-09-05T02:51:48.208Z,8.13
2018-09-05T02:53:52.144Z,8.70
2018-09-05T02:56:03.731Z,7.63
2018-09-05T02:58:07.610Z,9.10
2018-09-05T03:00:11.533Z,8.30
2018-09-05T03:02:15.433Z,8.30
2018-09-05T03:04:19.541Z,7.90
2018-09-05T03:06:23.514Z,10.00
2018-09-05T03:08:27.627Z,8.13
2018-09-05T03:10:31.683Z,8.80
2018-09-05T03:12:35.484Z,8.73
2018-09-05T03:14:39.496Z,8.57
2018-09-05T03:16:49.790Z,8.10
2018-09-05T03:18:56.013Z,8.83
2018-09-05T03:21:00.010Z,9.17
2018-09-05T03:23:04.583Z,9.03
2018-09-05T03:25:08.645Z,8.80
2018-09-05T03:27:12.464Z,8.33
2018-09-05T03:29:17.002Z,8.43
2018-09-05T03:31:20.850Z,7.53
2018-09-05T03:33:24.954Z,7.57
2018-09-05T03:35:29.199Z,8.30
2018-09-05T03:37:33.083Z,9.73
2018-09-05T03:39:37.072Z,8.50
2018-09-05T03:41:41.512Z,8.83
2018-09-05T03:43:45.457Z,7.07
2018-09-05T03:45:50.113Z,9.07
2018-09-05T03:47:54.222Z,9.27
2018-09-05T03:49:58.462Z,8.67
2018-09-05T03:52:02.335Z,8.90
2018-09-05T03:54:08.054Z,9.47
2018-09-05T03:56:11.983Z,8.20
2018-09-05T03:58:15.845Z,8.17
2018-09-05T04:00:19.787Z,8.83
2018-09-05T04:02:23.692Z,9.20
2018-09-05T04:04:27.982Z,9.03
2018-09-05T04:06:31.992Z,8.20
2018-09-05T04:08:35.859Z,7.73
2018-09-05T04:10:39.942Z,8.47
2018-09-05T04:12:43.968Z,8.87
2018-09-05T04:14:48.043Z,8.30
2018-09-05T04:16:53.688Z,8.60
2018-09-05T04:18:57.700Z,8.00
2018-09-05T04:21:01.883Z,8.00
2018-09-05T04:23:05.779Z,7.90
2018-09-05T04:25:09.544Z,9.13
2018-09-05T04:27:22.167Z,7.57
2018-09-05T04:29:34.385Z,8.23
2018-09-05T04:31:38.720Z,7.50
2018-09-05T04:33:42.940Z,8.63
2018-09-05T04:35:46.771Z,8.20
2018-09-05T04:37:50.806Z,8.50
2018-09-05T04:39:54.699Z,7.80
2018-09-05T04:41:58.631Z,7.30
2018-09-05T04:44:02.518Z,8.20
2018-09-05T04:46:06.577Z,8.57
2018-09-05T04:48:10.450Z,7.80
2018-09-05T04:50:14.486Z,8.57
2018-09-05T04:52:18.496Z,8.77
2018-09-05T04:54:22.601Z,8.47
2018-09-05T04:56:26.465Z,8.23
2018-09-05T04:58:30.477Z,8.43
2018-09-05T05:00:34.275Z,9.10
2018-09-05T05:02:38.352Z,8.40
2018-09-05T05:04:42.202Z,8.83
2018-09-05T05:06:46.242Z,8.60
2018-09-05T05:08:50.151Z,9.20
2018-09-05T05:10:54.196Z,7.70
2018-09-05T05:12:58.127Z,8.57
2018-09-05T05:15:02.134Z,8.40
2018-09-05T05:17:05.956Z,8.77
2018-09-05T05:19:09.992Z,8.10
2018-09-05T05:21:13.900Z,8.90
2018-09-05T05:23:17.874Z,8.83
2018-09-05T05:25:21.760Z,8.80
2018-09-05T05:27:25.776Z,9.40
2018-09-05T05:29:29.732Z,8.27
2018-09-05T05:31:33.957Z,9.87
2018-09-05T05:33:37.813Z,9.37
2018-09-05T05:35:41.760Z,9.37
2018-09-05T05:37:45.759Z,9.37
2018-09-05T05:39:49.742Z,9.03
2018-09-05T05:41:53.649Z,9.43
2018-09-05T05:43:57.632Z,9.67
2018-09-05T05:46:01.595Z,9.73
2018-09-05T05:48:06.043Z,9.93
2018-09-05T05:50:09.957Z,11.07
2018-09-05T05:52:13.886Z,9.70
2018-09-05T05:54:17.852Z,11.47
2018-09-05T05:56:21.745Z,10.47
2018-09-05T05:58:25.626Z,11.07
2018-09-05T06:00:30.032Z,10.20
2018-09-05T06:02:33.896Z,10.17
2018-09-05T06:04:37.776Z,11.13
2018-09-05T06:06:41.678Z,10.60
2018-09-05T06:08:45.597Z,10.80
2018-09-05T06:10:49.595Z,11.27
2018-09-05T06:12:54.546Z,11.00
2018-09-05T06:14:58.522Z,10.40
2018-09-05T06:17:02.866Z,10.70
2018-09-05T06:19:06.748Z,11.67
2018-09-05T06:21:10.719Z,11.93
2018-09-05T06:23:14.651Z,11.37
2018-09-05T06:25:18.577Z,11.97
2018-09-05T06:27:22.459Z,11.77
2018-09-05T06:29:26.537Z,11.47
2018-09-05T06:31:30.498Z,11.50
2018-09-05T06:33:34.690Z,10.97
2018-09-05T06:35:38.663Z,10.70
2018-09-05T06:37:44.135Z,11.70
2018-09-05T06:39:48.900Z,11.33
2018-09-05T06:41:52.755Z,12.07
2018-09-05T06:43:56.808Z,11.57
2018-09-05T06:46:00.701Z,12.53
2018-09-05T06:48:04.600Z,11.10
2018-09-05T06:50:08.584Z,11.03
2018-09-05T06:52:12.656Z,10.87
2018-09-05T06:54:16.643Z,11.10
2018-09-05T06:56:20.530Z,10.60
2018-09-05T06:58:24.741Z,10.77
2018-09-05T07:00:32.906Z,10.40
2018-09-05T07:02:37.495Z,11.43
2018-09-05T07:04:41.274Z,11.60
2018-09-05T07:06:45.684Z,11.80
2018-09-05T07:08:49.479Z,11.93
2018-09-05T07:10:53.321Z,11.27
2018-09-05T07:12:57.230Z,11.20
2018-09-05T07:15:01.097Z,11.57
2018-09-05T07:17:04.993Z,12.00
2018-09-05T07:19:09.967Z,11.00
2018-09-05T07:21:13.945Z,11.27
2018-09-05T07:23:17.743Z,11.97
2018-09-05T07:25:22.674Z,10.47
2018-09-05T07:27:26.653Z,11.30
2018-09-05T07:29:30.580Z,11.23
2018-09-05T07:31:34.386Z,11.27
2018-09-05T07:33:38.327Z,12.20
2018-09-05T07:35:42.253Z,10.97
2018-09-05T07:37:47.464Z,11.53
2018-09-05T07:39:51.392Z,12.23
2018-09-05T07:41:55.290Z,10.97
2018-09-05T07:43:59.296Z,10.83
2018-09-05T07:46:03.176Z,12.00
2018-09-05T07:48:07.097Z,11.50
2018-09-05T07:50:10.983Z,10.73
2018-09-05T07:52:15.570Z,11.90
2018-09-05T07:54:19.483Z,11.93
2018-09-05T07:56:23.296Z,12.20
2018-09-05T07:58:27.352Z,11.37
2018-09-05T08:00:31.157Z,11.40
2018-09-05T08:02:35.066Z,11.50
2018-09-05T08:04:38.949Z,11.03
2018-09-05T08:06:42.896Z,11.97
2018-09-05T08:08:47.210Z,11.50
2018-09-05T08:10:51.128Z,13.60
2018-09-05T08:12:55.064Z,12.70
2018-09-05T08:14:58.946Z,12.60
2018-09-05T08:17:02.831Z,12.63
2018-09-05T08:19:06.839Z,12.90
2018-09-05T08:21:10.806Z,11.63
2018-09-05T08:23:14.914Z,13.70
2018-09-05T08:25:18.861Z,12.27
2018-09-05T08:27:23.918Z,12.97
2018-09-05T08:29:28.314Z,11.97
2018-09-05T08:31:32.175Z,11.60
2018-09-05T08:33:36.050Z,11.30
2018-09-05T08:35:40.197Z,11.33
2018-09-05T08:37:44.162Z,12.67
2018-09-05T08:39:47.996Z,12.13
2018-09-05T08:41:51.927Z,10.60
2018-09-05T08:43:57.213Z,11.90
2018-09-05T08:46:01.022Z,12.00
2018-09-05T08:48:05.057Z,12.20
2018-09-05T08:50:09.035Z,12.00
2018-09-05T08:52:12.908Z,12.10
2018-09-05T08:54:16.767Z,12.67
2018-09-05T08:56:20.786Z,11.70
2018-09-05T08:58:25.451Z,11.80
2018-09-05T09:00:29.356Z,13.00
2018-09-05T09:02:33.242Z,12.30
2018-09-05T09:04:37.155Z,12.10
2018-09-05T09:06:41.044Z,13.00
2018-09-05T09:08:45.023Z,11.87
2018-09-05T09:10:48.872Z,13.13
2018-09-05T09:12:53.193Z,12.93
2018-09-05T09:14:57.896Z,13.10
2018-09-05T09:17:01.686Z,11.90
2018-09-05T09:19:05.604Z,13.50
2018-09-05T09:21:09.450Z,12.57
2018-09-05T09:23:13.361Z,12.17
2018-09-05T09:25:17.320Z,12.23
2018-09-05T09:27:21.251Z,12.90
2018-09-05T09:29:25.125Z,11.60
2018-09-05T09:31:28.956Z,11.77
2018-09-05T09:33:32.856Z,11.63
2018-09-05T09:35:36.896Z,12.67
2018-09-05T09:37:40.699Z,12.30
2018-09-05T09:39:44.510Z,11.90
2018-09-05T09:41:48.441Z,12.53
2018-09-05T09:43:52.318Z,13.37
2018-09-05T09:45:56.151Z,12.10
2018-09-05T09:48:00.038Z,13.23
2018-09-05T09:50:04.015Z,12.40
2018-09-05T09:52:13.195Z,13.30
2018-09-05T09:54:17.177Z,13.20
2018-09-05T09:56:21.285Z,12.53
2018-09-05T09:58:25.140Z,12.23
2018-09-05T10:00:34.596Z,12.83
2018-09-05T10:02:43.860Z,13.00
2018-09-05T10:04:53.067Z,12.80
2018-09-05T10:07:02.126Z,12.57
2018-09-05T10:09:13.517Z,15.67
2018-09-05T10:11:18.650Z,13.40
2018-09-05T10:13:28.001Z,12.00
2018-09-05T10:15:36.969Z,12.80
2018-09-05T10:17:40.937Z,12.83
2018-09-05T10:19:49.084Z,12.90
2018-09-05T10:21:54.419Z,12.30
2018-09-05T10:23:58.290Z,12.97
2018-09-05T10:26:02.223Z,11.83
2018-09-05T10:28:06.099Z,12.50
2018-09-05T10:30:10.082Z,12.03
2018-09-05T10:32:14.079Z,13.13
2018-09-05T10:34:18.071Z,12.33
2018-09-05T10:36:21.975Z,12.23
2018-09-05T10:38:25.847Z,14.17
2018-09-05T10:40:30.347Z,13.73
2018-09-05T10:42:34.220Z,14.27
2018-09-05T10:44:38.202Z,13.83
2018-09-05T10:46:42.052Z,13.30
2018-09-05T10:48:46.023Z,13.23
2018-09-05T10:50:49.930Z,12.60
2018-09-05T10:52:53.915Z,12.03
2018-09-05T10:54:57.820Z,13.30
2018-09-05T10:57:02.749Z,13.50
2018-09-05T10:59:06.744Z,13.60
2018-09-05T11:01:10.657Z,13.20
2018-09-05T11:03:14.457Z,12.23
2018-09-05T11:05:18.349Z,13.57
2018-09-05T11:07:22.205Z,12.87
2018-09-05T11:09:26.109Z,13.83
2018-09-05T11:11:29.996Z,13.70
2018-09-05T11:13:33.879Z,13.20
2018-09-05T11:15:37.973Z,14.37
2018-09-05T11:17:41.805Z,14.30
2018-09-05T11:19:45.782Z,12.70
2018-09-05T11:21:49.697Z,12.93
2018-09-05T11:23:53.553Z,13.47
2018-09-05T11:25:57.438Z,13.57
2018-09-05T11:28:01.282Z,13.60
2018-09-05T11:30:05.540Z,13.87
2018-09-05T11:32:09.535Z,13.60
2018-09-05T11:34:13.358Z,13.47
2018-09-05T11:36:17.289Z,14.07
2018-09-05T11:38:21.152Z,15.43
2018-09-05T11:40:25.195Z,12.50
2018-09-05T11:42:29.186Z,13.67
2018-09-05T11:44:33.072Z,13.33
2018-09-05T11:46:37.888Z,14.13
2018-09-05T11:48:41.679Z,13.90
2018-09-05T11:50:45.519Z,14.70
2018-09-05T11:52:49.400Z,14.53
2018-09-05T11:54:53.270Z,13.87
2018-09-05T11:56:57.133Z,14.50
2018-09-05T11:59:01.004Z,13.30
2018-09-05T12:01:05.214Z,12.77
2018-09-05T12:03:09.070Z,13.53
2018-09-05T12:05:13.446Z,13.53
2018-09-05T12:07:17.484Z,14.03
2018-09-05T12:09:21.368Z,14.33
2018-09-05T12:11:26.745Z,13.97
2018-09-05T12:13:32.080Z,14.10
2018-09-05T12:15:36.243Z,14.33
2018-09-05T12:17:40.202Z,14.67
2018-09-05T12:19:44.454Z,13.77
2018-09-05T12:21:49.596Z,22.73
2018-09-05T12:23:53.687Z,29.10
2018-09-05T12:25:58.050Z,15.60
2018-09-05T12:28:02.155Z,15.70
2018-09-05T12:30:06.810Z,12.87
2018-09-05T12:32:10.844Z,13.20
2018-09-05T12:34:45.436Z,13.30
2018-09-05T12:36:51.877Z,12.20
2018-09-05T12:38:55.709Z,13.50
2018-09-05T12:40:59.873Z,12.60
2018-09-05T12:43:23.493Z,13.50
2018-09-05T12:45:28.117Z,13.17
2018-09-05T12:47:32.543Z,13.03
2018-09-05T12:49:36.433Z,13.23
2018-09-05T12:51:40.606Z,14.00
2018-09-05T12:53:49.009Z,14.33
2018-09-05T12:55:54.684Z,13.07
2018-09-05T12:57:59.018Z,13.00
2018-09-05T13:00:04.248Z,13.90
2018-09-05T13:02:08.634Z,13.50
2018-09-05T13:04:12.545Z,14.00
2018-09-05T13:06:17.016Z,12.57
2018-09-05T13:08:20.842Z,13.27
2018-09-05T13:10:24.748Z,12.10
2018-09-05T13:12:28.816Z,13.10
2018-09-05T13:14:33.226Z,13.30
2018-09-05T13:16:37.269Z,12.73
2018-09-05T13:18:41.167Z,13.80
2018-09-05T13:20:45.073Z,13.27
2018-09-05T13:22:49.023Z,12.20
2018-09-05T13:24:52.931Z,12.57
2018-09-05T13:26:56.869Z,12.70
2018-09-05T13:29:00.778Z,12.00
2018-09-05T13:31:04.801Z,12.40
2018-09-05T13:33:17.176Z,12.20
2018-09-05T13:35:21.118Z,13.50
2018-09-05T13:37:25.052Z,13.10
2018-09-05T13:39:29.332Z,11.83
2018-09-05T13:41:33.506Z,13.20
2018-09-05T13:43:39.232Z,12.70
2018-09-05T13:45:43.267Z,13.30
2018-09-05T13:47:47.167Z,12.00
2018-09-05T13:49:51.685Z,11.80
2018-09-05T13:52:00.801Z,14.77
2018-09-05T13:54:04.828Z,11.97
2018-09-05T13:56:08.741Z,11.90
2018-09-05T13:58:12.598Z,12.60
2018-09-05T14:00:16.973Z,11.17
2018-09-05T14:02:23.419Z,12.07
2018-09-05T14:04:30.487Z,13.00
2018-09-05T14:06:35.545Z,12.50
2018-09-05T14:08:39.368Z,11.83
2018-09-05T14:10:43.241Z,11.67
2018-09-05T14:12:47.657Z,11.50
2018-09-05T14:14:51.566Z,12.53
2018-09-05T14:16:59.686Z,13.20
2018-09-05T14:19:22.666Z,13.73
2018-09-05T14:21:39.122Z,12.93
2018-09-05T14:23:43.374Z,12.70
2018-09-05T14:25:47.273Z,11.20
2018-09-05T14:27:51.707Z,12.57
2018-09-05T14:29:55.943Z,12.93
2018-09-05T14:31:59.970Z,12.20
2018-09-05T14:34:04.754Z,12.77
2018-09-05T14:36:14.909Z,12.47
2018-09-05T14:38:19.412Z,12.00
2018-09-05T14:40:23.608Z,11.73
2018-09-05T14:42:33.809Z,12.10
2018-09-05T14:44:56.855Z,12.10
2018-09-05T14:47:00.784Z,12.07
2018-09-05T14:49:04.688Z,11.50
2018-09-05T14:51:09.145Z,11.50
2018-09-05T14:53:13.147Z,11.80
2018-09-05T14:55:17.253Z,12.20
2018-09-05T14:57:21.406Z,11.63
2018-09-05T14:59:26.337Z,11.50
2018-09-05T15:01:30.596Z,11.60
2018-09-05T15:03:34.575Z,11.70
2018-09-05T15:05:38.683Z,11.53
2018-09-05T15:07:47.295Z,10.70
2018-09-05T15:09:51.288Z,11.13
2018-09-05T15:11:56.639Z,10.90
2018-09-05T15:14:00.796Z,11.03
2018-09-05T15:16:04.680Z,10.47
2018-09-05T15:18:11.213Z,11.60
2018-09-05T15:20:15.260Z,10.90
2018-09-05T15:22:19.115Z,10.67
2018-09-05T15:24:24.390Z,12.00
2018-09-05T15:26:29.052Z,11.00
2018-09-05T15:28:33.129Z,10.30
2018-09-05T15:30:37.091Z,10.77
2018-09-05T15:32:40.944Z,10.97
2018-09-05T15:34:44.861Z,11.60
2018-09-05T15:36:48.784Z,11.13
2018-09-05T15:38:53.806Z,11.17
2018-09-05T15:40:57.787Z,11.37
2018-09-05T15:43:01.714Z,12.53
2018-09-05T15:45:07.273Z,11.40
2018-09-05T15:47:11.227Z,12.47
2018-09-05T15:49:15.323Z,13.60
2018-09-05T15:51:27.668Z,12.83
2018-09-05T15:53:31.598Z,12.90
2018-09-05T15:55:35.468Z,13.17
2018-09-05T15:57:39.417Z,12.27
2018-09-05T15:59:43.388Z,12.67
2018-09-05T16:01:47.241Z,12.17
2018-09-05T16:03:51.118Z,12.03
2018-09-05T16:05:55.031Z,12.63
2018-09-05T16:07:58.970Z,12.33
2018-09-05T16:10:02.818Z,12.00
2018-09-05T16:12:06.762Z,13.07
2018-09-05T16:14:10.750Z,13.87
2018-09-05T16:16:14.633Z,12.47
2018-09-05T16:18:18.541Z,12.97
2018-09-05T16:20:22.440Z,12.87
2018-09-05T16:22:26.256Z,12.40
2018-09-05T16:24:30.177Z,12.33
2018-09-05T16:26:34.018Z,12.83
2018-09-05T16:28:37.849Z,12.80
2018-09-05T16:30:41.752Z,12.70
2018-09-05T16:32:45.791Z,12.13
2018-09-05T16:34:49.646Z,12.33
2018-09-05T16:36:53.561Z,11.70
2018-09-05T16:38:57.465Z,13.57
2018-09-05T16:41:01.389Z,12.73
2018-09-05T16:43:05.391Z,12.57
2018-09-05T16:45:09.416Z,12.67
2018-09-05T16:47:13.248Z,12.40
2018-09-05T16:49:17.320Z,12.70
2018-09-05T16:51:21.207Z,14.40
2018-09-05T16:53:25.058Z,12.73
2018-09-05T16:55:28.942Z,12.97
2018-09-05T16:57:32.839Z,14.10
2018-09-05T16:59:36.741Z,13.07
2018-09-05T17:01:40.579Z,12.83
2018-09-05T17:03:44.482Z,11.67
2018-09-05T17:05:48.384Z,12.17
2018-09-05T17:07:52.317Z,11.80
2018-09-05T17:09:56.249Z,11.90
2018-09-05T17:12:00.074Z,12.23
2018-09-05T17:14:04.041Z,12.27
2018-09-05T17:16:08.190Z,11.70
2018-09-05T17:18:11.999Z,11.60
2018-09-05T17:20:15.835Z,13.80
2018-09-05T17:22:19.699Z,12.17
2018-09-05T17:24:23.607Z,12.37
2018-09-05T17:26:27.464Z,12.30
2018-09-05T17:28:31.357Z,12.93
2018-09-05T17:30:35.168Z,12.73
2018-09-05T17:32:39.027Z,12.30
2018-09-05T17:34:42.939Z,12.80
2018-09-05T17:36:47.016Z,11.90
2018-09-05T17:38:50.833Z,13.77
2018-09-05T17:40:54.701Z,14.10
2018-09-05T17:42:58.524Z,13.00
2018-09-05T17:45:02.359Z,12.67
2018-09-05T17:47:06.425Z,13.67
2018-09-05T17:49:28.658Z,13.10
2018-09-05T17:51:32.568Z,13.30
2018-09-05T17:53:36.475Z,14.07
2018-09-05T17:55:40.348Z,13.20
2018-09-05T17:57:44.126Z,13.03
2018-09-05T17:59:48.126Z,14.57
2018-09-05T18:01:52.233Z,14.40
2018-09-05T18:03:56.116Z,14.13
2018-09-05T18:06:00.016Z,14.50
2018-09-05T18:08:04.098Z,13.80
2018-09-05T18:10:08.176Z,13.67
2018-09-05T18:12:12.335Z,14.03
2018-09-05T18:14:17.184Z,14.50
2018-09-05T18:16:21.070Z,15.93
2018-09-05T18:18:25.030Z,14.43
2018-09-05T18:20:29.311Z,14.43
2018-09-05T18:22:33.959Z,13.77
2018-09-05T18:24:37.853Z,15.10
2018-09-05T18:26:42.813Z,13.53
2018-09-05T18:28:47.718Z,14.80
2018-09-05T18:30:53.460Z,14.80
2018-09-05T18:32:57.850Z,15.30
2018-09-05T18:35:01.829Z,14.07
2018-09-05T18:37:06.030Z,14.23
2018-09-05T18:39:10.289Z,13.50
2018-09-05T18:41:15.141Z,14.63
2018-09-05T18:43:19.174Z,13.83
2018-09-05T18:45:24.002Z,13.43
2018-09-05T18:47:28.170Z,14.20
2018-09-05T18:49:32.139Z,14.70
2018-09-05T18:51:36.322Z,14.20
2018-09-05T18:53:41.863Z,13.33
2018-09-05T18:55:47.276Z,14.07
2018-09-05T18:57:51.193Z,14.70
2018-09-05T18:59:55.273Z,13.80
2018-09-05T19:02:00.159Z,15.90
2018-09-05T19:04:04.181Z,15.30
2018-09-05T19:06:21.831Z,14.83
2018-09-05T19:08:28.212Z,16.17
2018-09-05T19:10:32.989Z,15.03
2018-09-05T19:12:38.019Z,15.73
2018-09-05T19:14:43.519Z,16.10
2018-09-05T19:16:48.573Z,15.67
2018-09-05T19:18:53.462Z,15.20
2018-09-05T19:21:23.210Z,14.90
2018-09-05T19:23:27.223Z,15.60
2018-09-05T19:25:31.292Z,15.13
2018-09-05T19:27:36.447Z,15.40
2018-09-05T19:29:41.612Z,14.40
2018-09-05T19:31:45.721Z,15.83
2018-09-05T19:33:50.060Z,14.70
2018-09-05T19:36:00.902Z,15.43
2018-09-05T19:38:04.850Z,14.63
2018-09-05T19:40:09.254Z,14.50
2018-09-05T19:42:13.185Z,16.50
2018-09-05T19:44:21.692Z,15.63
2018-09-05T19:46:27.261Z,16.30
2018-09-05T19:48:33.277Z,15.90
2018-09-05T19:50:38.648Z,15.80
2018-09-05T19:52:43.107Z,16.30
2018-09-05T19:54:49.722Z,15.63
2018-09-05T19:56:53.772Z,17.37
2018-09-05T19:58:58.363Z,16.23
2018-09-05T20:01:02.268Z,17.37
2018-09-05T20:03:06.474Z,17.90
2018-09-05T20:05:10.422Z,16.33
2018-09-05T20:07:14.657Z,16.80
2018-09-05T20:09:18.563Z,16.67
2018-09-05T20:11:22.481Z,17.00
2018-09-05T20:13:27.854Z,15.63
2018-09-05T20:15:31.819Z,16.50
2018-09-05T20:17:35.854Z,15.83
2018-09-05T20:19:39.865Z,16.37
2018-09-05T20:21:44.443Z,16.50
2018-09-05T20:23:48.350Z,16.43
2018-09-05T20:25:52.291Z,15.83
2018-09-05T20:27:59.310Z,17.50
2018-09-05T20:30:03.298Z,17.33
2018-09-05T20:32:07.386Z,16.73
2018-09-05T20:34:11.457Z,18.37
2018-09-05T20:36:17.879Z,16.97
2018-09-05T20:38:25.783Z,17.00
2018-09-05T20:40:29.737Z,16.80
2018-09-05T20:42:33.774Z,16.10
2018-09-05T20:44:39.238Z,16.97
2018-09-05T20:46:43.108Z,16.77
2018-09-05T20:48:46.976Z,17.27
2018-09-05T20:50:50.900Z,16.80
2018-09-05T20:52:59.597Z,16.00
2018-09-05T20:55:03.712Z,16.67
2018-09-05T20:57:07.788Z,18.37
2018-09-05T20:59:11.794Z,16.87
2018-09-05T21:01:19.545Z,17.20
2018-09-05T21:03:24.195Z,16.83
2018-09-05T21:05:28.328Z,16.40
2018-09-05T21:07:32.366Z,15.90
2018-09-05T21:09:36.443Z,16.80
2018-09-05T21:11:40.358Z,16.93
2018-09-05T21:13:44.337Z,16.70
2018-09-05T21:15:52.024Z,16.77
2018-09-05T21:17:55.984Z,15.93
2018-09-05T21:19:59.881Z,17.50
2018-09-05T21:22:03.827Z,17.57
2018-09-05T21:24:07.926Z,17.60
2018-09-05T21:26:12.314Z,17.23
2018-09-05T21:28:16.241Z,16.90
2018-09-05T21:30:20.175Z,17.47
2018-09-05T21:32:24.106Z,17.90
2018-09-05T21:34:28.084Z,17.77
2018-09-05T21:36:32.075Z,17.90
2018-09-05T21:38:35.997Z,16.73
2018-09-05T21:40:39.896Z,17.00
2018-09-05T21:42:43.789Z,17.17
2018-09-05T21:44:47.602Z,18.40
2018-09-05T21:46:51.688Z,17.47
2018-09-05T21:48:55.569Z,17.90
2018-09-05T21:50:59.757Z,17.83
2018-09-05T21:53:04.454Z,19.17
2018-09-05T21:55:08.544Z,18.37
2018-09-05T21:57:12.435Z,18.53
2018-09-05T21:59:17.538Z,17.67
2018-09-05T22:01:21.478Z,18.43
2018-09-05T22:03:26.134Z,17.47
2018-09-05T22:05:31.845Z,18.50
2018-09-05T22:07:37.073Z,17.93
2018-09-05T22:09:41.127Z,17.80
2018-09-05T22:11:45.089Z,19.43
2018-09-05T22:13:49.971Z,18.27
2018-09-05T22:15:55.202Z,17.83
2018-09-05T22:17:59.214Z,17.13
2018-09-05T22:20:03.216Z,16.87
2018-09-05T22:22:07.298Z,16.53
2018-09-05T22:24:11.325Z,17.23
2018-09-05T22:26:15.350Z,17.73
2018-09-05T22:28:19.745Z,16.77
2018-09-05T22:30:23.969Z,18.20
2018-09-05T22:32:27.943Z,18.00
2018-09-05T22:34:32.131Z,17.93
2018-09-05T22:36:39.743Z,17.37
2018-09-05T22:38:45.167Z,16.37
2018-09-05T22:40:53.540Z,18.03
2018-09-05T22:43:09.259Z,18.13
2018-09-05T22:45:24.655Z,17.43
2018-09-05T22:47:39.615Z,17.67
2018-09-05T22:53:04.944Z,15.70
2018-09-05T22:55:26.279Z,17.23
2018-09-05T22:57:46.653Z,17.57
2018-09-05T23:02:13.307Z,18.03
2018-09-05T23:05:27.764Z,17.10
2018-09-05T23:07:45.859Z,16.47
2018-09-05T23:10:00.663Z,16.60
2018-09-05T23:12:30.488Z,16.70
2018-09-05T23:14:45.578Z,18.80
2018-09-05T23:18:00.105Z,18.10
2018-09-05T23:25:25.063Z,18.73
2018-09-05T23:27:29.717Z,16.77
2018-09-05T23:29:33.768Z,19.90
2018-09-05T23:31:37.760Z,17.77
2018-09-05T23:33:41.706Z,17.90
2018-09-05T23:35:45.645Z,17.97
2018-09-05T23:37:50.621Z,16.80
2018-09-05T23:39:54.587Z,18.20
2018-09-05T23:41:58.564Z,18.60
2018-09-05T23:44:02.457Z,18.60
2018-09-05T23:46:06.552Z,18.30
2018-09-05T23:48:10.506Z,18.80
2018-09-05T23:50:14.483Z,18.87
2018-09-05T23:52:21.071Z,19.17
2018-09-05T23:54:25.205Z,19.23
2018-09-05T23:56:30.300Z,17.53
2018-09-05T23:58:34.366Z,17.50
